Time;durP1;ratioP1;P1;durP2;ratioP2;P2;SDS_P1;SDS_P2;PMS_P1;PMS_P2;Temp;Humidity;BMP_temperature;BMP_pressure;BME280_temperature;BME280_humidity;BME280_pressure;Samples;Min_cycle;Max_cycle;Signal;HPM_P1;HPM_P2
2023/09/24 00:02:07;;;;;;;12.63;8.68;;;;;;;8.42;100.00;102241.59;6186318;23;20390;-72
2023/09/24 00:04:32;;;;;;;9.45;7.72;;;;;;;8.33;100.00;102246.59;6187819;23;20062;-71
2023/09/24 00:06:58;;;;;;;14.73;8.75;;;;;;;8.36;100.00;102248.41;6238014;23;20009;-72
2023/09/24 00:09:23;;;;;;;11.38;8.77;;;;;;;8.43;100.00;102237.22;6237581;23;20462;-72
2023/09/24 00:11:49;;;;;;;13.00;8.77;;;;;;;8.41;100.00;102241.56;6163519;23;20008;-72
2023/09/24 00:14:14;;;;;;;10.45;9.32;;;;;;;8.43;100.00;102245.97;6187476;23;20042;-72
2023/09/24 00:16:40;;;;;;;12.32;9.20;;;;;;;8.36;100.00;102237.97;6213627;23;20011;-72
2023/09/24 00:19:06;;;;;;;12.77;8.93;;;;;;;8.45;100.00;102259.09;6162290;23;20023;-72
2023/09/24 00:21:31;;;;;;;11.07;9.02;;;;;;;8.39;100.00;102258.91;6187294;23;20013;-72
2023/09/24 00:23:57;;;;;;;15.35;9.60;;;;;;;8.44;100.00;102263.41;6213268;23;20414;-72
2023/09/24 00:26:24;;;;;;;13.48;8.52;;;;;;;8.36;100.00;102264.97;6187879;23;20020;-72
2023/09/24 00:28:50;;;;;;;10.02;9.00;;;;;;;8.38;100.00;102257.19;6188138;23;20035;-72
2023/09/24 00:31:15;;;;;;;13.88;9.23;;;;;;;8.36;100.00;102258.84;6187904;23;20345;-72
2023/09/24 00:33:41;;;;;;;14.13;9.27;;;;;;;8.26;100.00;102253.47;6211690;23;20103;-71
2023/09/24 00:36:06;;;;;;;13.77;9.57;;;;;;;8.26;100.00;102258.69;6187602;23;20047;-71
2023/09/24 00:38:31;;;;;;;13.32;9.60;;;;;;;8.21;100.00;102255.09;6188202;23;20070;-72
2023/09/24 00:40:57;;;;;;;12.10;9.75;;;;;;;8.27;100.00;102257.81;6188126;23;20032;-72
2023/09/24 00:43:27;;;;;;;16.35;10.32;;;;;;;8.26;100.00;102258.69;6187748;23;20015;-72
2023/09/24 00:45:53;;;;;;;13.32;11.10;;;;;;;8.29;100.00;102253.53;6187494;23;20000;-71
2023/09/24 00:48:18;;;;;;;10.45;9.32;;;;;;;8.30;100.00;102259.63;6211680;23;20047;-72
2023/09/24 00:50:44;;;;;;;15.07;10.90;;;;;;;8.29;100.00;102258.75;6162261;23;20043;-72
2023/09/24 00:53:10;;;;;;;13.18;11.32;;;;;;;8.34;100.00;102258.81;6187610;23;20068;-72
2023/09/24 00:55:36;;;;;;;12.75;10.40;;;;;;;8.25;100.00;102262.13;6162899;23;20092;-72
2023/09/24 00:58:03;;;;;;;12.63;9.77;;;;;;;8.16;100.00;102272.41;6187479;23;20036;-72
2023/09/24 01:00:30;;;;;;;14.13;10.82;;;;;;;8.19;100.00;102271.56;6188114;23;20020;-72
2023/09/24 01:02:59;;;;;;;12.90;9.60;;;;;;;8.01;100.00;102279.91;6213230;23;20032;-72
2023/09/24 01:05:27;;;;;;;10.07;8.20;;;;;;;7.94;100.00;102277.16;6211308;23;20013;-72
2023/09/24 01:07:54;;;;;;;11.02;8.68;;;;;;;7.98;100.00;102276.34;6163033;23;20039;-72
2023/09/24 01:10:24;;;;;;;9.63;8.63;;;;;;;7.88;100.00;102271.78;6212155;23;20000;-72
2023/09/24 01:12:54;;;;;;;5.07;2.78;;;;;;;8.01;100.00;102282.50;6213042;23;20001;-72
2023/09/24 01:15:20;;;;;;;5.82;2.25;;;;;;;7.97;100.00;102272.00;6162684;23;20074;-72
2023/09/24 01:17:45;;;;;;;10.95;8.38;;;;;;;7.77;100.00;102270.66;6187610;23;20012;-72
2023/09/24 01:20:13;;;;;;;10.80;8.13;;;;;;;7.70;100.00;102272.25;6211978;23;20387;-72
2023/09/24 01:22:42;;;;;;;11.50;8.15;;;;;;;7.66;100.00;102274.75;6187909;23;20012;-72
2023/09/24 01:25:08;;;;;;;9.43;8.45;;;;;;;7.59;100.00;102271.13;6212842;23;20013;-72
2023/09/24 01:27:36;;;;;;;13.05;10.65;;;;;;;7.70;100.00;102271.34;6187273;23;20415;-73
2023/09/24 01:30:05;;;;;;;16.48;12.27;;;;;;;7.79;100.00;102272.47;6163447;23;20013;-72
2023/09/24 01:32:31;;;;;;;16.90;12.75;;;;;;;7.77;100.00;102278.47;6163046;23;20729;-72
2023/09/24 01:34:57;;;;;;;16.00;12.77;;;;;;;7.79;100.00;102268.97;6211733;23;20051;-72
2023/09/24 01:37:23;;;;;;;15.73;13.05;;;;;;;7.87;100.00;102266.53;6186565;23;20101;-72
2023/09/24 01:39:51;;;;;;;15.05;12.95;;;;;;;7.94;100.00;102266.72;6187663;23;20439;-72
2023/09/24 01:42:16;;;;;;;14.80;13.00;;;;;;;7.90;100.00;102256.16;6186664;23;20017;-72
2023/09/24 01:44:42;;;;;;;17.73;13.30;;;;;;;7.97;100.00;102256.34;6187335;23;20378;-72
2023/09/24 01:47:07;;;;;;;15.35;13.23;;;;;;;8.01;100.00;102252.06;6186764;23;20008;-72
2023/09/24 01:49:33;;;;;;;8.48;3.72;;;;;;;8.03;100.00;102257.31;6211594;23;20091;-72
2023/09/24 01:51:59;;;;;;;13.75;11.93;;;;;;;7.90;100.00;102259.66;6211885;23;20023;-72
2023/09/24 01:54:25;;;;;;;14.10;12.32;;;;;;;7.81;100.00;102262.06;6211316;23;20012;-72
2023/09/24 01:56:55;;;;;;;13.68;11.23;;;;;;;7.74;100.00;102267.97;6187220;23;20009;-72
2023/09/24 01:59:21;;;;;;;;;;;;;;;7.86;100.00;102268.28;6187689;23;20019;-70
2023/09/24 02:01:47;;;;;;;11.95;10.30;;;;;;;7.62;100.00;102260.75;6187346;23;20314;-70
2023/09/24 02:04:13;;;;;;;11.75;8.40;;;;;;;7.55;100.00;102259.72;6185876;23;20070;-70
2023/09/24 02:06:38;;;;;;;15.57;10.52;;;;;;;7.38;100.00;102263.66;6211415;23;20386;-70
2023/09/24 02:09:03;;;;;;;12.57;9.85;;;;;;;7.29;100.00;102254.75;6186545;23;20016;-70
2023/09/24 02:11:29;;;;;;;13.98;10.40;;;;;;;7.27;100.00;102256.47;6186674;23;20451;-70
2023/09/24 02:13:54;;;;;;;15.10;13.00;;;;;;;7.38;100.00;102255.84;6186689;23;20601;-70
2023/09/24 02:16:20;;;;;;;7.40;3.08;;;;;;;7.45;100.00;102255.13;6186660;23;20012;-70
2023/09/24 02:18:46;;;;;;;14.32;10.43;;;;;;;7.24;100.00;102261.59;6235828;22;20012;-70
2023/09/24 02:21:14;;;;;;;14.98;11.38;;;;;;;7.24;100.00;102272.03;6162000;23;20004;-70
2023/09/24 02:23:40;;;;;;;15.68;13.65;;;;;;;7.45;100.00;102279.47;6187856;23;20035;-69
2023/09/24 02:26:07;;;;;;;17.77;14.10;;;;;;;7.47;100.00;102279.56;6212047;23;20335;-69
2023/09/24 02:28:33;;;;;;;16.63;13.98;;;;;;;7.40;100.00;102275.91;6210146;23;20091;-69
2023/09/24 02:30:59;;;;;;;15.45;13.80;;;;;;;7.49;100.00;102280.47;6162152;23;20087;-69
2023/09/24 02:33:24;;;;;;;16.23;14.05;;;;;;;7.46;100.00;102283.00;6185260;23;20013;-70
2023/09/24 02:35:49;;;;;;;12.98;11.60;;;;;;;7.31;100.00;102288.69;6185355;23;20436;-69
2023/09/24 02:38:15;;;;;;;15.90;12.75;;;;;;;7.33;100.00;102278.34;6186445;23;20011;-70
2023/09/24 02:40:40;;;;;;;12.02;10.82;;;;;;;7.24;100.00;102285.06;6211856;23;20023;-70
2023/09/24 02:43:06;;;;;;;15.90;12.88;;;;;;;7.40;100.00;102288.06;6186594;23;20020;-69
2023/09/24 02:45:32;;;;;;;17.02;13.85;;;;;;;7.37;100.00;102287.97;6210760;23;20462;-70
2023/09/24 02:47:58;;;;;;;12.02;10.68;;;;;;;7.19;100.00;102286.66;6161991;23;20326;-70
2023/09/24 02:50:25;;;;;;;10.63;9.52;;;;;;;7.02;100.00;102285.38;6210551;23;20005;-69
2023/09/24 02:52:54;;;;;;;11.27;10.20;;;;;;;7.08;100.00;102294.22;6211581;23;20011;-69
2023/09/24 02:55:25;;;;;;;16.17;13.52;;;;;;;7.29;100.00;102291.25;6212563;23;20000;-70
2023/09/24 02:57:50;;;;;;;14.35;11.73;;;;;;;7.14;100.00;102287.41;6212499;23;20119;-70
2023/09/24 03:00:26;;;;;;;10.13;9.13;;;;;;;7.07;100.00;102283.78;6186272;23;20446;-70
2023/09/24 03:02:57;;;;;;;11.20;9.60;;;;;;;7.02;100.00;102285.38;6212991;23;20016;-70
2023/09/24 03:05:24;;;;;;;44.80;10.63;;;;;;;6.80;100.00;102283.91;6186568;23;20004;-70
2023/09/24 03:07:59;;;;;;;14.60;10.30;;;;;;;6.90;100.00;102288.53;6211203;23;20028;-70
2023/09/24 03:10:26;;;;;;;11.25;9.70;;;;;;;6.96;100.00;102285.22;6210962;23;20005;-70
2023/09/24 03:12:52;;;;;;;9.13;8.23;;;;;;;6.71;100.00;102285.44;6186999;23;20008;-70
2023/09/24 03:15:19;;;;;;;10.15;9.15;;;;;;;6.76;100.00;102293.34;6212895;23;20000;-71
2023/09/24 03:17:48;;;;;;;5.35;2.97;;;;;;;6.92;100.00;102302.47;6163847;23;20012;-70
2023/09/24 03:20:23;;;;;;;4.95;2.80;;;;;;;6.93;100.00;102305.13;6188414;23;20008;-70
2023/09/24 03:22:51;;;;;;;4.25;2.35;;;;;;;6.91;100.00;102303.31;6213770;23;20407;-70
2023/09/24 03:25:20;;;;;;;16.98;12.48;;;;;;;6.86;100.00;102297.09;6188733;23;20024;-69
2023/09/24 03:27:47;;;;;;;15.27;12.90;;;;;;;6.87;100.00;102302.34;6238514;22;20013;-70
2023/09/24 03:30:17;;;;;;;13.35;11.95;;;;;;;6.78;100.00;102301.22;6213505;23;20458;-69
2023/09/24 03:32:47;;;;;;;14.83;12.67;;;;;;;6.84;100.00;102310.09;6237713;23;20013;-70
2023/09/24 03:35:14;;;;;;;15.52;13.48;;;;;;;6.94;100.00;102306.88;6187741;23;20564;-69
2023/09/24 03:37:43;;;;;;;17.13;13.90;;;;;;;7.03;100.00;102319.28;6187842;23;20042;-70
2023/09/24 03:40:18;;;;;;;16.20;11.98;;;;;;;6.92;100.00;102320.72;6213224;23;20011;-70
2023/09/24 03:42:45;;;;;;;16.00;12.77;;;;;;;6.86;100.00;102324.03;6238430;23;20004;-72
2023/09/24 03:45:12;;;;;;;14.38;12.85;;;;;;;6.92;100.00;102319.00;6212478;23;20028;-72
2023/09/24 03:47:38;;;;;;;17.52;12.82;;;;;;;6.92;100.00;102321.63;6214154;23;20058;-72
2023/09/24 03:50:05;;;;;;;15.77;12.48;;;;;;;7.00;100.00;102320.94;6187764;23;20020;-72
2023/09/24 03:52:31;;;;;;;6.53;2.25;;;;;;;7.04;100.00;102325.38;6162933;23;20008;-72
2023/09/24 03:54:59;;;;;;;15.43;11.32;;;;;;;6.87;100.00;102325.81;6188317;23;20035;-72
2023/09/24 03:57:27;;;;;;;14.88;11.45;;;;;;;6.90;100.00;102320.69;6212579;23;20004;-72
2023/09/24 03:59:57;;;;;;;14.55;11.77;;;;;;;6.93;100.00;102331.19;6188437;23;20012;-72
2023/09/24 04:02:23;;;;;;;7.88;3.20;;;;;;;7.03;100.00;102323.63;6187462;23;20009;-72
2023/09/24 04:04:50;;;;;;;13.85;11.77;;;;;;;6.98;100.00;102335.63;6212971;23;20004;-72
2023/09/24 04:07:22;;;;;;;15.77;11.73;;;;;;;6.93;100.00;102328.56;6162624;23;20036;-72
2023/09/24 04:09:50;;;;;;;14.30;11.65;;;;;;;6.91;100.00;102339.78;6212758;23;20430;-72
2023/09/24 04:12:16;;;;;;;14.27;11.93;;;;;;;6.94;100.00;102335.56;6188678;23;20035;-72
2023/09/24 04:14:41;;;;;;;14.70;12.23;;;;;;;6.91;100.00;102340.69;6213016;23;20005;-72
2023/09/24 04:17:07;;;;;;;14.55;12.15;;;;;;;6.94;100.00;102345.97;6212415;23;20335;-72
2023/09/24 04:19:33;;;;;;;13.02;11.02;;;;;;;6.96;100.00;102347.75;6212422;23;20031;-72
2023/09/24 04:21:58;;;;;;;12.68;11.02;;;;;;;6.87;100.00;102344.06;6187394;23;20018;-72
2023/09/24 04:24:24;;;;;;;14.70;11.52;;;;;;;6.90;100.00;102349.34;6187897;23;20388;-72
2023/09/24 04:26:53;;;;;;;14.10;11.25;;;;;;;6.97;100.00;102357.31;6237664;23;20031;-72
2023/09/24 04:29:19;;;;;;;13.38;10.38;;;;;;;6.88;100.00;102348.44;6213061;23;20009;-69
2023/09/24 04:31:45;;;;;;;11.68;10.30;;;;;;;6.90;100.00;102349.34;6186703;23;20152;-69
2023/09/24 04:34:12;;;;;;;16.00;10.85;;;;;;;6.98;100.00;102352.16;6207984;23;20040;-69
2023/09/24 04:36:39;;;;;;;15.02;10.80;;;;;;;6.91;100.00;102358.94;6211446;23;20000;-69
2023/09/24 04:39:06;;;;;;;12.68;10.30;;;;;;;6.99;100.00;102353.06;6187875;23;20342;-69
2023/09/24 04:41:32;;;;;;;9.00;3.20;;;;;;;7.01;100.00;102353.97;6163168;23;20012;-70
2023/09/24 04:43:57;;;;;;;13.70;9.90;;;;;;;6.93;100.00;102349.41;6138435;23;20339;-70
2023/09/24 04:46:23;;;;;;;10.73;9.25;;;;;;;6.83;100.00;102356.97;6137957;23;20378;-69
2023/09/24 04:48:48;;;;;;;12.50;9.75;;;;;;;6.70;100.00;102356.59;6137335;23;20028;-69
2023/09/24 04:51:14;;;;;;;15.50;10.60;;;;;;;6.80;100.00;102359.47;6137905;23;20095;-69
2023/09/24 04:53:39;;;;;;;10.68;9.23;;;;;;;6.65;100.00;102353.00;6162823;23;20013;-70
2023/09/24 04:56:08;;;;;;;12.40;9.15;;;;;;;6.61;100.00;102363.25;6162261;23;20015;-70
2023/09/24 04:58:34;;;;;;;10.68;9.05;;;;;;;6.64;100.00;102358.13;6212686;23;20423;-70
2023/09/24 05:01:07;;;;;;;12.10;9.02;;;;;;;6.65;100.00;102362.50;6212782;23;20039;-70
2023/09/24 05:03:35;;;;;;;11.40;10.20;;;;;;;6.74;100.00;102358.47;6187336;23;20008;-70
2023/09/24 05:06:00;;;;;;;13.70;9.68;;;;;;;6.71;100.00;102360.06;6211767;23;20453;-70
2023/09/24 05:08:29;;;;;;;10.80;9.75;;;;;;;6.70;100.00;102361.81;6187430;23;20013;-70
2023/09/24 05:10:54;;;;;;;12.02;9.55;;;;;;;6.67;100.00;102355.66;6212451;23;20324;-69
2023/09/24 05:13:20;;;;;;;12.13;9.55;;;;;;;6.70;100.00;102361.81;6162483;23;20015;-69
2023/09/24 05:15:59;;;;;;;11.85;9.20;;;;;;;6.74;100.00;102361.06;6186663;23;20009;-70
2023/09/24 05:18:28;;;;;;;14.15;8.75;;;;;;;6.66;100.00;102364.28;6212011;23;20012;-69
2023/09/24 05:20:54;;;;;;;11.45;9.00;;;;;;;6.73;100.00;102371.44;6186653;23;20016;-69
2023/09/24 05:23:23;;;;;;;11.68;9.27;;;;;;;6.72;100.00;102369.66;6187811;23;20009;-69
2023/09/24 05:25:52;;;;;;;11.05;9.02;;;;;;;6.82;100.00;102376.91;6187228;23;20034;-69
2023/09/24 05:28:20;;;;;;;11.95;9.30;;;;;;;6.86;100.00;102383.97;6230220;22;20021;-69
2023/09/24 05:30:53;;;;;;;11.27;8.95;;;;;;;6.85;100.00;102382.22;6162367;23;20039;-69
2023/09/24 05:33:19;;;;;;;14.23;10.00;;;;;;;6.81;100.00;102375.16;6186521;23;20008;-69
2023/09/24 05:35:49;;;;;;;12.27;9.02;;;;;;;6.91;100.00;102382.38;6186015;23;20339;-69
2023/09/24 05:38:15;;;;;;;13.07;9.48;;;;;;;6.90;100.00;102380.63;6211913;23;20011;-69
2023/09/24 05:40:40;;;;;;;12.82;9.75;;;;;;;6.96;100.00;102389.47;6187208;23;20000;-69
2023/09/24 05:43:06;;;;;;;6.47;3.47;;;;;;;7.00;100.00;102386.97;6211767;23;20541;-69
2023/09/24 05:45:31;;;;;;;4.00;2.55;;;;;;;7.09;100.00;102397.63;6186551;23;20355;-69
2023/09/24 05:47:57;;;;;;;8.63;3.42;;;;;;;7.12;100.00;102396.84;6236966;22;20080;-69
2023/09/24 05:50:22;;;;;;;15.75;9.88;;;;;;;7.15;100.00;102402.13;6186211;23;20008;-69
2023/09/24 05:52:47;;;;;;;13.18;8.95;;;;;;;7.11;100.00;102405.50;6187206;23;20067;-70
2023/09/24 05:55:13;;;;;;;11.57;9.52;;;;;;;7.20;100.00;102408.38;6211716;23;20435;-70
2023/09/24 05:57:38;;;;;;;12.60;9.25;;;;;;;7.14;100.00;102397.78;6161937;23;20320;-70
2023/09/24 06:00:04;;;;;;;14.13;9.25;;;;;;;7.26;100.00;102405.94;6212449;23;20431;-70
2023/09/24 06:02:30;;;;;;;13.18;9.02;;;;;;;7.38;100.00;102409.72;6211967;23;20075;-70
2023/09/24 06:04:55;;;;;;;10.02;8.20;;;;;;;7.49;100.00;102412.63;6211027;23;20439;-72
2023/09/24 06:07:21;;;;;;;11.88;8.32;;;;;;;7.85;100.00;102401.34;6186290;23;20012;-72
2023/09/24 06:09:46;;;;;;;12.40;8.00;;;;;;;9.51;100.00;102417.06;6211474;23;20091;-72
2023/09/24 06:12:12;;;;;;;6.97;5.65;;;;;;;10.75;100.00;102418.13;6186697;23;20015;-71
2023/09/24 06:14:39;;;;;;;6.75;5.00;;;;;;;11.92;94.41;102420.19;6186492;23;20083;-72
2023/09/24 06:17:06;;;;;;;7.40;4.65;;;;;;;12.26;88.81;102428.38;6186729;23;20386;-72
2023/09/24 06:19:32;;;;;;;6.50;4.38;;;;;;;12.42;86.68;102419.69;6161551;23;20036;-72
2023/09/24 06:21:57;;;;;;;6.40;3.78;;;;;;;12.89;83.00;102425.19;6186132;23;20005;-72
2023/09/24 06:24:23;;;;;;;7.38;4.32;;;;;;;13.02;81.82;102429.63;6185618;23;20008;-72
2023/09/24 06:26:48;;;;;;;6.55;3.95;;;;;;;13.54;79.33;102436.78;6159518;23;20120;-71
2023/09/24 06:29:14;;;;;;;6.38;3.80;;;;;;;14.20;77.02;102428.00;6161601;23;20013;-72
2023/09/24 06:31:58;;;;;;;7.75;4.20;;;;;;;15.37;77.42;102434.63;6161853;23;20047;-74
2023/09/24 06:34:26;;;;;;;7.68;3.88;;;;;;;15.39;72.06;102438.13;6160315;23;20158;-72
2023/09/24 06:36:51;;;;;;;5.80;3.70;;;;;;;15.48;69.45;102439.84;6185913;23;20095;-70
2023/09/24 06:39:16;;;;;;;5.85;3.80;;;;;;;15.48;69.67;102445.13;6161675;23;20047;-70
2023/09/24 06:41:45;;;;;;;7.55;3.75;;;;;;;15.52;69.49;102447.72;6186661;23;20012;-70
2023/09/24 06:44:11;;;;;;;6.40;3.70;;;;;;;14.85;70.71;102448.97;6187189;23;20015;-70
2023/09/24 06:46:36;;;;;;;7.65;3.55;;;;;;;14.21;73.34;102457.00;6161874;23;20452;-70
2023/09/24 06:49:02;;;;;;;5.45;3.55;;;;;;;14.11;74.30;102450.00;6160645;23;20269;-72
2023/09/24 06:51:27;;;;;;;7.70;3.70;;;;;;;13.84;75.48;102450.88;6185748;23;20063;-69
2023/09/24 06:53:54;;;;;;;6.63;3.70;;;;;;;14.02;75.63;102455.25;6186400;23;20008;-69
2023/09/24 06:56:19;;;;;;;6.38;3.63;;;;;;;13.54;77.42;102451.72;6137809;23;20339;-70
2023/09/24 06:58:45;;;;;;;7.07;3.50;;;;;;;13.37;77.92;102457.81;6161852;23;20008;-70
2023/09/24 07:01:10;;;;;;;5.60;3.80;;;;;;;13.30;79.16;102456.03;6210469;23;20005;-70
2023/09/24 07:03:36;;;;;;;6.72;3.70;;;;;;;13.40;79.40;102449.94;6186368;23;20019;-70
2023/09/24 07:06:06;;;;;;;7.28;3.63;;;;;;;13.63;79.48;102463.16;6210378;23;20035;-72
2023/09/24 07:08:35;;;;;;;;;;;;;;;14.84;77.77;102452.47;6138187;23;20012;-72
2023/09/24 07:11:28;;;;;;;7.00;3.83;;;;;;;14.18;79.42;102461.44;6186365;23;19977;-72
2023/09/24 07:13:54;;;;;;;6.38;3.63;;;;;;;13.69;78.32;102462.25;6211032;23;20385;-72
2023/09/24 07:16:22;;;;;;;6.35;3.47;;;;;;;13.61;79.31;102466.66;6213350;23;20035;-72
2023/09/24 07:18:49;;;;;;;6.95;4.03;;;;;;;14.08;78.48;102465.81;6212011;23;20373;-72
2023/09/24 07:21:15;;;;;;;8.48;4.00;;;;;;;14.35;76.75;102464.91;6186847;23;20043;-72
2023/09/24 07:23:41;;;;;;;7.53;3.90;;;;;;;14.84;74.58;102468.31;6186427;23;20008;-72
2023/09/24 07:26:08;;;;;;;7.28;4.05;;;;;;;15.51;72.06;102463.59;6136751;23;20012;-72
2023/09/24 07:28:34;;;;;;;7.97;4.20;;;;;;;16.01;71.28;102472.06;6182378;23;20422;-72
2023/09/24 07:30:59;;;;;;;7.45;3.80;;;;;;;15.88;70.50;102473.94;6236552;23;20102;-70
2023/09/24 07:33:26;;;;;;;8.07;4.13;;;;;;;15.25;73.09;102476.06;6186382;23;20013;-70
2023/09/24 07:35:52;;;;;;;7.97;4.15;;;;;;;15.19;74.82;102470.81;6235874;23;20001;-69
2023/09/24 07:38:18;;;;;;;6.05;3.85;;;;;;;14.87;74.31;102479.75;6186416;23;20012;-69
2023/09/24 07:40:44;;;;;;;6.72;3.88;;;;;;;14.67;76.62;102481.59;6211388;23;20007;-70
2023/09/24 07:43:13;;;;;;;7.97;4.00;;;;;;;14.66;78.84;102485.97;6186053;23;20004;-70
2023/09/24 07:45:44;;;;;;;7.72;3.80;;;;;;;14.42;79.43;102489.50;6211691;23;20015;-71
2023/09/24 07:48:13;;;;;;;6.25;4.00;;;;;;;14.04;80.87;102485.16;6212027;23;20057;-72
2023/09/24 07:50:41;;;;;;;6.93;3.85;;;;;;;13.95;82.76;102496.56;6235857;23;20016;-70
2023/09/24 07:53:07;;;;;;;7.20;4.05;;;;;;;13.73;81.40;102497.41;6162044;23;20009;-69
2023/09/24 07:55:32;;;;;;;9.80;4.22;;;;;;;13.61;82.81;102504.41;6160516;23;20051;-69
2023/09/24 07:57:57;;;;;;;5.97;3.92;;;;;;;13.57;85.10;102496.50;6235306;22;20013;-70
2023/09/24 08:00:23;;;;;;;6.88;4.28;;;;;;;13.44;84.26;102492.97;6211203;23;20029;-70
2023/09/24 08:02:48;;;;;;;9.88;4.18;;;;;;;13.32;85.74;102499.91;6186607;23;20013;-72
2023/09/24 08:05:15;;;;;;;5.93;3.67;;;;;;;13.40;86.61;102496.47;6187054;23;20008;-69
2023/09/24 08:07:40;;;;;;;7.95;4.30;;;;;;;13.62;86.67;102503.53;6214459;23;20223;-69
2023/09/24 08:10:06;;;;;;;7.80;4.18;;;;;;;13.61;86.42;102493.88;6212781;23;20435;-72
2023/09/24 08:12:31;;;;;;;8.20;4.30;;;;;;;13.68;88.11;102494.78;6163298;23;20414;-72
2023/09/24 08:14:57;;;;;;;7.70;4.25;;;;;;;13.64;85.68;102495.66;6212781;23;20000;-72
2023/09/24 08:17:22;;;;;;;8.50;4.72;;;;;;;13.68;88.18;102492.16;6187052;23;20517;-73
2023/09/24 08:19:48;;;;;;;9.77;4.53;;;;;;;13.78;86.04;102493.91;6237268;23;20067;-72
2023/09/24 08:22:13;;;;;;;9.93;4.13;;;;;;;13.88;84.85;102499.19;6187259;23;20090;-70
2023/09/24 08:24:38;;;;;;;9.98;4.28;;;;;;;13.89;84.17;102500.94;6188034;23;20013;-70
2023/09/24 08:27:04;;;;;;;7.72;3.75;;;;;;;14.46;83.63;102496.53;6162348;23;20021;-69
2023/09/24 08:29:29;;;;;;;5.90;3.65;;;;;;;14.86;80.86;102499.09;6138134;23;20115;-69
2023/09/24 08:31:55;;;;;;;6.63;3.83;;;;;;;14.82;79.80;102494.72;6212376;23;20016;-70
2023/09/24 08:34:21;;;;;;;6.78;3.83;;;;;;;14.82;79.76;102502.63;6162316;23;20300;-70
2023/09/24 08:36:46;;;;;;;7.03;3.70;;;;;;;14.79;81.44;102494.72;6161961;23;20058;-70
2023/09/24 08:39:14;;;;;;;9.38;4.20;;;;;;;15.02;81.94;102499.06;6138319;23;20386;-70
2023/09/24 08:41:44;;;;;;;6.78;4.30;;;;;;;15.31;83.12;102496.28;6163377;23;20005;-70
2023/09/24 08:44:14;;;;;;;6.53;4.20;;;;;;;15.39;80.82;102499.75;6212222;23;20012;-69
2023/09/24 08:46:41;;;;;;;9.35;4.18;;;;;;;15.58;77.56;102499.66;6187785;23;20438;-70
2023/09/24 08:49:06;;;;;;;7.03;4.07;;;;;;;15.57;77.91;102503.19;6211125;23;20347;-70
2023/09/24 08:51:33;;;;;;;7.07;3.83;;;;;;;15.44;77.07;102509.44;6162325;23;20012;-69
2023/09/24 08:54:00;;;;;;;7.22;3.17;;;;;;;15.36;77.21;102509.47;6187362;23;20008;-71
2023/09/24 08:56:27;;;;;;;5.78;3.08;;;;;;;15.41;78.91;102502.38;6187353;23;20009;-70
2023/09/24 08:58:53;;;;;;;6.40;2.85;;;;;;;15.48;78.54;102500.59;6162731;23;20016;-69
2023/09/24 09:01:18;;;;;;;6.28;2.80;;;;;;;15.71;79.84;102501.31;6187388;23;20312;-70
2023/09/24 09:03:44;;;;;;;6.32;2.95;;;;;;;16.20;74.54;102500.09;6162335;23;20034;-70
2023/09/24 09:06:10;;;;;;;6.65;2.80;;;;;;;16.31;76.93;102497.38;6210817;23;20009;-71
2023/09/24 09:08:52;;;;;;;5.97;2.50;;;;;;;16.29;76.51;102507.06;6137216;23;20139;-72
2023/09/24 09:11:19;;;;;;;4.78;2.70;;;;;;;16.04;75.09;102498.47;6211191;23;20009;-73
2023/09/24 09:13:48;;;;;;;5.60;2.40;;;;;;;15.84;75.80;102506.56;6186890;23;20393;-72
2023/09/24 09:16:14;;;;;;;6.13;2.35;;;;;;;15.92;76.24;102497.69;6211258;23;20470;-73
2023/09/24 09:18:40;;;;;;;4.53;2.35;;;;;;;15.97;78.54;102496.78;6210266;23;20004;-73
2023/09/24 09:21:05;;;;;;;6.97;1.95;;;;;;;16.18;78.22;102488.66;6135871;23;20024;-73
2023/09/24 09:23:32;;;;;;;5.85;2.15;;;;;;;16.19;77.26;102493.06;6187224;23;20431;-73
2023/09/24 09:25:58;;;;;;;4.50;1.70;;;;;;;16.18;77.35;102486.03;6212219;23;20024;-72
2023/09/24 09:28:31;;;;;;;5.43;1.95;;;;;;;16.17;75.70;102496.63;6202003;23;20025;-72
2023/09/24 09:31:04;;;;;;;3.97;1.60;;;;;;;16.20;76.73;102478.06;6212059;23;20008;-72
2023/09/24 09:33:41;;;;;;;5.35;1.73;;;;;;;16.21;74.15;102472.75;6237084;23;20008;-72
2023/09/24 09:36:34;;;;;;;4.00;1.77;;;;;;;16.43;74.91;102486.69;6211776;23;20009;-72
2023/09/24 09:39:02;;;;;;;4.07;1.42;;;;;;;16.29;74.28;102475.31;6231886;22;20008;-72
2023/09/24 09:41:31;;;;;;;5.18;1.85;;;;;;;16.49;76.81;102467.19;6212556;23;20015;-72
2023/09/24 09:44:04;;;;;;;3.95;1.77;;;;;;;16.68;77.19;102459.94;6212097;23;20012;-72
2023/09/24 09:46:33;;;;;;;4.90;1.65;;;;;;;16.72;75.70;102455.47;6237709;23;20000;-71
2023/09/24 09:49:07;;;;;;;5.10;1.60;;;;;;;16.76;72.62;102457.19;6212293;23;20019;-72
2023/09/24 09:51:47;;;;;;;5.10;1.40;;;;;;;16.86;73.10;102458.84;6187772;23;20027;-72
2023/09/24 09:54:14;;;;;;;4.80;1.50;;;;;;;16.80;71.65;102443.03;6237122;23;20012;-72
2023/09/24 09:56:41;;;;;;;4.75;1.80;;;;;;;17.17;72.84;102452.28;6187128;23;20091;-72
2023/09/24 09:59:07;;;;;;;5.43;1.80;;;;;;;17.52;72.30;102453.56;6211655;23;20004;-72
2023/09/24 10:01:34;;;;;;;4.80;1.60;;;;;;;17.70;68.43;102445.34;6186916;23;20005;-72
2023/09/24 10:04:05;;;;;;;5.10;1.70;;;;;;;17.64;68.05;102448.06;6186018;23;20012;-70
2023/09/24 10:06:35;;;;;;;6.15;1.50;;;;;;;17.99;69.37;102434.25;6187181;23;20322;-70
2023/09/24 10:09:01;;;;;;;5.05;1.83;;;;;;;17.91;67.68;102425.56;6211837;23;20107;-70
2023/09/24 10:11:32;;;;;;;3.83;1.67;;;;;;;17.91;68.98;102420.25;6211975;23;20480;-70
2023/09/24 10:13:59;;;;;;;4.32;1.50;;;;;;;18.13;69.82;102423.41;6236766;23;20004;-70
2023/09/24 10:16:35;;;;;;;3.53;1.38;;;;;;;18.95;66.74;102432.44;6187045;23;20005;-69
2023/09/24 10:19:08;;;;;;;4.28;1.67;;;;;;;19.28;65.38;102429.94;6236001;22;20012;-70
2023/09/24 10:21:38;;;;;;;3.88;1.35;;;;;;;19.28;67.23;102426.41;6213433;23;20059;-69
2023/09/24 10:24:09;;;;;;;2.92;1.30;;;;;;;18.79;63.67;102421.25;6211725;23;20005;-70
2023/09/24 10:26:48;;;;;;;3.30;1.75;;;;;;;18.74;67.72;102428.41;6236818;23;20093;-69
2023/09/24 10:29:46;;;;;;;3.20;1.50;;;;;;;18.75;67.31;102423.97;6236405;22;20078;-70
2023/09/24 10:32:17;;;;;;;4.65;1.80;;;;;;;18.27;65.18;102431.09;6235962;23;20012;-70
2023/09/24 10:37:19;;;;;;;4.07;1.52;;;;;;;18.00;64.20;102409.50;6211042;23;20415;-69
2023/09/24 10:42:28;;;;;;;4.82;1.58;;;;;;;18.58;62.89;102427.88;6213395;23;20009;-70
2023/09/24 10:45:13;;;;;;;3.65;1.67;;;;;;;18.81;63.49;102418.56;6212091;23;20008;-70
2023/09/24 10:47:41;;;;;;;4.97;1.60;;;;;;;18.46;62.92;102410.41;6191583;23;20091;-69
2023/09/24 10:50:15;;;;;;;4.20;2.08;;;;;;;18.41;62.78;102414.06;6210226;23;20005;-70
2023/09/24 10:53:01;;;;;;;5.00;1.38;;;;;;;18.42;61.94;102407.81;6212977;23;20024;-71
2023/09/24 10:55:27;;;;;;;5.10;1.48;;;;;;;18.09;62.05;102399.63;6211393;23;20008;-70
2023/09/24 10:57:53;;;;;;;4.15;1.40;;;;;;;18.08;60.31;102412.00;6236501;22;20062;-71
2023/09/24 11:00:20;;;;;;;2.67;1.27;;;;;;;17.83;60.38;102406.25;6185432;23;20394;-71
2023/09/24 11:02:53;;;;;;;2.85;1.58;;;;;;;17.90;63.34;102409.63;6160914;23;20016;-71
2023/09/24 11:05:19;;;;;;;4.38;1.55;;;;;;;17.89;62.13;102411.44;6235357;23;20016;-72
2023/09/24 11:07:45;;;;;;;2.92;1.30;;;;;;;17.96;62.58;102407.81;6186023;23;20439;-71
2023/09/24 11:10:10;;;;;;;3.15;1.40;;;;;;;18.05;62.83;102414.72;6235725;23;20016;-71
2023/09/24 11:12:36;;;;;;;3.50;1.60;;;;;;;18.04;61.32;102409.44;6159070;23;20012;-71
2023/09/24 11:15:03;;;;;;;3.38;1.30;;;;;;;18.05;61.42;102405.91;6181793;23;20012;-71
2023/09/24 11:17:29;;;;;;;3.78;1.38;;;;;;;18.08;63.18;102400.53;6210674;23;20024;-69
2023/09/24 11:19:54;;;;;;;4.00;1.38;;;;;;;18.14;60.64;102398.63;6185016;23;20019;-70
2023/09/24 11:22:26;;;;;;;3.75;1.30;;;;;;;18.56;62.91;102408.44;6160117;23;20020;-70
2023/09/24 11:25:29;;;;;;;4.53;1.23;;;;;;;18.58;62.03;102396.00;6210158;23;20031;-71
2023/09/24 11:27:58;;;;;;;3.83;1.27;;;;;;;18.56;59.47;102402.25;6091224;23;20046;-69